Time;durP1;ratioP1;P1;durP2;ratioP2;P2;SDS_P1;SDS_P2;PMS_P1;PMS_P2;Temp;Humidity;BMP_temperature;BMP_pressure;BME280_temperature;BME280_humidity;BME280_pressure;Samples;Min_cycle;Max_cycle;Signal;HPM_P1;HPM_P2
2021/04/22 00:00:23;;;;;;;24.23;14.07;;;;;;;12.13;60.87;100085.41;5031451;28;20025;-51
2021/04/22 00:02:48;;;;;;;24.50;13.90;;;;;;;12.12;60.39;100095.22;5031363;28;20136;-50
2021/04/22 00:05:28;;;;;;;21.25;12.63;;;;;;;12.20;60.84;100088.06;5031393;28;20100;-50
2021/04/22 00:07:54;;;;;;;22.10;13.07;;;;;;;12.12;60.94;100099.75;5031231;28;20053;-50
2021/04/22 00:10:27;;;;;;;21.90;13.10;;;;;;;12.05;61.07;100097.09;5031285;28;20140;-50
2021/04/22 00:12:52;;;;;;;19.83;12.63;;;;;;;11.99;60.62;100092.56;5031062;28;20090;-51
2021/04/22 00:15:19;;;;;;;21.05;12.75;;;;;;;11.82;62.09;100085.94;5031089;28;20119;-53
2021/04/22 00:17:44;;;;;;;18.33;12.23;;;;;;;11.78;62.04;100095.38;5030904;28;20021;-51
2021/04/22 00:20:12;;;;;;;20.25;12.13;;;;;;;11.76;62.12;100086.75;5030805;28;20534;-52
2021/04/22 00:22:37;;;;;;;21.50;13.00;;;;;;;11.78;62.43;100096.19;5030914;28;20450;-48
2021/04/22 00:25:03;;;;;;;27.65;13.65;;;;;;;11.53;62.63;100094.09;5030252;28;20029;-50
2021/04/22 00:27:29;;;;;;;22.63;13.80;;;;;;;11.59;62.39;100088.97;5030346;28;20131;-49
2021/04/22 00:29:54;;;;;;;23.42;13.60;;;;;;;11.57;62.17;100085.69;5030160;28;20474;-51
2021/04/22 00:32:20;;;;;;;24.58;13.40;;;;;;;11.78;61.45;100088.19;5030484;28;20048;-52
2021/04/22 00:34:45;;;;;;;23.27;14.25;;;;;;;11.72;61.96;100092.50;5030400;28;20037;-51
2021/04/22 00:37:11;;;;;;;24.38;14.23;;;;;;;11.72;61.58;100089.00;5030688;28;20095;-49
2021/04/22 00:39:37;;;;;;;27.05;14.15;;;;;;;11.54;61.91;100081.59;5030910;28;20026;-52
2021/04/22 00:42:04;;;;;;;25.88;13.73;;;;;;;11.35;63.17;100089.34;5030995;28;20022;-48
2021/04/22 00:44:29;;;;;;;22.67;13.70;;;;;;;11.46;62.46;100087.09;5031096;28;20123;-51
2021/04/22 00:46:55;;;;;;;20.85;13.60;;;;;;;11.23;63.04;100088.28;5029709;28;20466;-50
2021/04/22 00:49:20;;;;;;;21.25;13.13;;;;;;;11.20;63.61;100088.66;5029734;28;20108;-51
2021/04/22 00:51:46;;;;;;;26.67;13.13;;;;;;;11.31;63.06;100096.09;5012775;28;20041;-51
2021/04/22 00:54:11;;;;;;;22.85;13.70;;;;;;;11.35;63.01;100093.84;5031406;28;20029;-49
2021/04/22 00:56:37;;;;;;;23.38;13.40;;;;;;;11.40;61.79;100096.72;5029711;28;20044;-50
2021/04/22 00:59:02;;;;;;;24.80;14.15;;;;;;;11.44;62.27;100094.47;5030862;28;20497;-48
2021/04/22 01:01:28;;;;;;;24.45;14.00;;;;;;;11.26;62.82;100095.84;5031312;28;20021;-52
2021/04/22 01:03:53;;;;;;;27.52;15.15;;;;;;;11.34;61.86;100098.31;5030899;28;20493;-48
2021/04/22 01:06:19;;;;;;;24.15;15.00;;;;;;;11.39;61.92;100102.25;5029455;28;20022;-51
2021/04/22 01:08:45;;;;;;;28.10;14.68;;;;;;;11.44;61.09;100099.81;5030734;28;20026;-50
2021/04/22 01:11:12;;;;;;;25.48;15.35;;;;;;;11.40;61.88;100101.22;5030478;28;20115;-50
2021/04/22 01:13:38;;;;;;;27.63;15.68;;;;;;;11.40;62.08;100093.22;5030692;28;20057;-48
2021/04/22 01:16:03;;;;;;;25.90;15.55;;;;;;;11.42;61.68;100091.19;5030462;28;20044;-50
2021/04/22 01:18:29;;;;;;;28.55;15.70;;;;;;;11.36;61.57;100095.47;5030744;28;20018;-49
2021/04/22 01:20:54;;;;;;;28.88;16.15;;;;;;;11.27;62.55;100094.00;5030629;28;20083;-48
2021/04/22 01:23:20;;;;;;;28.27;16.23;;;;;;;11.33;62.20;100094.03;5030536;28;20052;-50
2021/04/22 01:25:50;;;;;;;27.52;15.13;;;;;;;11.31;62.23;100100.59;5030713;28;20021;-49
2021/04/22 01:28:16;;;;;;;30.05;15.25;;;;;;;9.69;67.08;100101.47;5030579;28;20098;-48
2021/04/22 01:31:00;;;;;;;24.38;14.75;;;;;;;8.89;69.40;100095.22;5030885;28;20028;-52
2021/04/22 01:33:27;;;;;;;27.08;15.20;;;;;;;8.36;70.24;100096.06;5030604;28;20155;-51
2021/04/22 01:35:54;;;;;;;27.23;15.38;;;;;;;8.02;73.85;100099.19;5030331;28;20492;-50
2021/04/22 01:38:20;;;;;;;26.80;15.32;;;;;;;7.92;75.26;100101.25;5030359;28;20033;-52
2021/04/22 01:40:45;;;;;;;26.38;15.35;;;;;;;7.79;75.62;100104.50;5012507;28;20405;-51
2021/04/22 01:43:11;;;;;;;31.98;16.95;;;;;;;7.84;75.21;100099.47;5030432;28;20021;-48
2021/04/22 01:45:36;;;;;;;28.98;16.17;;;;;;;7.84;75.34;100102.13;5030321;28;20025;-52
2021/04/22 01:48:02;;;;;;;26.85;15.75;;;;;;;7.95;75.26;100099.06;5030256;28;20072;-52
2021/04/22 01:50:30;;;;;;;26.85;15.40;;;;;;;7.86;75.31;100094.81;5030322;28;20026;-51
2021/04/22 01:52:55;;;;;;;26.05;15.52;;;;;;;7.70;76.00;100093.13;5033992;28;20043;-51
2021/04/22 01:55:23;;;;;;;27.60;15.98;;;;;;;7.55;75.86;100092.22;5034514;28;20021;-50
2021/04/22 01:57:50;;;;;;;29.70;16.60;;;;;;;7.52;76.28;100093.41;5033043;28;20479;-51
2021/04/22 02:00:18;;;;;;;27.17;15.65;;;;;;;7.48;76.93;100099.22;5034355;28;20504;-52
2021/04/22 02:02:44;;;;;;;28.83;15.48;;;;;;;7.36;76.55;100099.63;5034441;28;20171;-52
2021/04/22 02:05:10;;;;;;;28.45;16.15;;;;;;;7.38;77.08;100099.44;5034106;28;20476;-52
2021/04/22 02:07:36;;;;;;;29.05;16.08;;;;;;;7.48;76.84;100100.03;5034486;28;20443;-51
2021/04/22 02:10:06;;;;;;;34.65;18.42;;;;;;;7.56;76.88;100101.84;5033930;28;20053;-50
2021/04/22 02:12:31;;;;;;;;;;;;;;;7.69;76.67;100103.88;5034570;28;20033;-48
2021/04/22 02:14:57;;;;;;;71.65;38.17;;;;;;;7.77;76.61;100101.22;5034111;28;19943;-48
2021/04/22 02:17:22;;;;;;;116.97;51.63;;;;;;;7.91;76.10;100096.97;5034018;28;20033;-51
2021/04/22 02:19:48;;;;;;;81.28;39.30;;;;;;;7.79;75.90;100102.66;5033881;28;20367;-50
2021/04/22 02:22:14;;;;;;;57.72;28.63;;;;;;;7.67;75.74;100108.53;5033776;28;20040;-50
2021/04/22 02:24:39;;;;;;;31.40;16.98;;;;;;;7.35;76.83;100111.22;5033948;28;20028;-50
2021/04/22 02:27:05;;;;;;;32.78;16.65;;;;;;;7.23;77.68;100118.72;5033598;28;20029;-49
2021/04/22 02:29:31;;;;;;;29.63;16.50;;;;;;;7.24;77.59;100122.19;5033803;28;20477;-48
2021/04/22 02:31:56;;;;;;;33.03;17.33;;;;;;;8.11;74.42;100114.03;5033756;28;20029;-48
2021/04/22 02:34:22;;;;;;;30.33;16.45;;;;;;;7.86;75.54;100115.22;5032225;28;20497;-50
2021/04/22 02:36:47;;;;;;;30.23;16.25;;;;;;;7.47;76.49;100119.59;5033135;28;20048;-48
2021/04/22 02:39:12;;;;;;;32.15;15.73;;;;;;;7.31;77.71;100122.31;5033295;28;20029;-49
2021/04/22 02:41:38;;;;;;;27.75;15.85;;;;;;;7.28;76.82;100118.19;5033494;28;20393;-48
2021/04/22 02:44:04;;;;;;;26.42;15.32;;;;;;;7.26;77.11;100119.38;5033472;28;20025;-49
2021/04/22 02:46:29;;;;;;;28.63;16.83;;;;;;;7.53;77.03;100118.88;5033307;28;20026;-49
2021/04/22 02:48:54;;;;;;;41.40;22.42;;;;;;;8.37;74.06;100121.56;5033389;28;20041;-49
2021/04/22 02:51:20;;;;;;;34.38;17.35;;;;;;;8.03;74.98;100120.22;5033134;28;20045;-48
2021/04/22 02:53:45;;;;;;;27.45;14.95;;;;;;;7.56;75.82;100121.19;5033457;28;20025;-48
2021/04/22 02:56:11;;;;;;;23.27;13.02;;;;;;;7.53;75.93;100126.84;5033479;28;20026;-51
2021/04/22 02:58:36;;;;;;;20.98;12.60;;;;;;;7.44;75.28;100123.44;5033255;28;20068;-48
2021/04/22 03:01:02;;;;;;;20.48;12.63;;;;;;;7.49;75.86;100127.38;5031739;28;20037;-51
2021/04/22 03:03:27;;;;;;;22.88;13.10;;;;;;;7.44;76.10;100088.16;5033157;28;20080;-48
2021/04/22 03:05:56;;;;;;;23.80;13.30;;;;;;;8.54;72.38;100119.63;5033362;28;20029;-49
2021/04/22 03:08:21;;;;;;;22.27;12.60;;;;;;;7.98;73.70;100121.75;5033078;28;20072;-48
2021/04/22 03:10:47;;;;;;;24.95;13.27;;;;;;;7.58;74.21;100118.38;5032854;28;20053;-50
2021/04/22 03:13:12;;;;;;;21.60;12.10;;;;;;;7.34;75.45;100122.78;5033083;28;20456;-50
2021/04/22 03:15:38;;;;;;;29.05;15.57;;;;;;;7.29;75.88;100125.16;5032835;28;20037;-49
2021/04/22 03:18:04;;;;;;;27.52;15.48;;;;;;;7.52;75.77;100125.19;5031238;28;20039;-50
2021/04/22 03:20:29;;;;;;;29.92;16.95;;;;;;;8.28;72.99;100129.78;5032857;28;20104;-51
2021/04/22 03:22:55;;;;;;;26.83;15.82;;;;;;;8.03;73.71;100129.97;5032564;28;20033;-51
2021/04/22 03:25:23;;;;;;;29.38;15.50;;;;;;;7.64;74.93;100122.97;5032443;28;20480;-49
2021/04/22 03:27:48;;;;;;;27.67;15.48;;;;;;;7.52;75.01;100119.91;5032486;28;20029;-50
2021/04/22 03:30:15;;;;;;;24.88;14.40;;;;;;;7.30;74.79;100121.50;5032414;28;20471;-48
2021/04/22 03:32:41;;;;;;;24.52;14.77;;;;;;;7.19;75.72;100124.53;5032104;28;20649;-48
2021/04/22 03:35:07;;;;;;;91.55;41.63;;;;;;;7.23;77.72;100131.97;5032336;28;20033;-49
2021/04/22 03:37:33;;;;;;;40.42;18.85;;;;;;;8.00;73.91;100133.81;5032322;28;20111;-49
2021/04/22 03:39:59;;;;;;;30.38;16.10;;;;;;;7.96;73.33;100134.38;5032142;28;20462;-50
2021/04/22 03:42:24;;;;;;;28.13;15.55;;;;;;;7.29;75.24;100130.44;5031407;28;20056;-50
2021/04/22 03:44:50;;;;;;;33.33;15.55;;;;;;;7.00;76.27;100123.09;5031479;28;20025;-50
2021/04/22 03:47:15;;;;;;;29.30;16.70;;;;;;;6.73;76.59;100132.28;5031391;28;20036;-51
2021/04/22 03:49:41;;;;;;;144.60;65.40;;;;;;;6.75;77.41;100136.41;5031279;28;20091;-50
2021/04/22 03:52:06;;;;;;;70.28;36.50;;;;;;;7.46;77.06;100140.94;5030770;28;20056;-49
2021/04/22 03:54:32;;;;;;;49.47;28.10;;;;;;;7.94;75.82;100150.44;5031038;28;20087;-49
2021/04/22 03:56:59;;;;;;;34.72;18.92;;;;;;;8.02;74.30;100155.66;5031087;28;20025;-51
2021/04/22 03:59:24;;;;;;;27.58;15.80;;;;;;;8.02;74.64;100155.66;5024589;28;20049;-50
2021/04/22 04:01:50;;;;;;;30.60;15.35;;;;;;;8.34;74.76;100152.94;5024652;28;20033;-49
2021/04/22 04:04:15;;;;;;;29.83;16.38;;;;;;;8.63;74.23;100157.53;5013543;28;20029;-50
2021/04/22 04:06:41;;;;;;;26.67;15.38;;;;;;;9.45;71.37;100158.44;5009652;28;20034;-52
2021/04/22 04:09:06;;;;;;;26.30;14.68;;;;;;;9.63;69.84;100161.50;5025174;28;20030;-49
2021/04/22 04:11:32;;;;;;;29.63;15.00;;;;;;;9.54;69.94;100157.34;5027641;28;20053;-50
2021/04/22 04:13:57;;;;;;;32.38;15.60;;;;;;;9.76;69.27;100160.84;5029065;28;20062;-49
2021/04/22 04:16:23;;;;;;;31.90;15.65;;;;;;;9.69;69.35;100167.91;5030198;28;20080;-50
2021/04/22 04:18:48;;;;;;;29.23;15.57;;;;;;;10.01;68.91;100173.78;5021971;28;20422;-50
2021/04/22 04:21:14;;;;;;;36.65;15.88;;;;;;;10.00;69.70;100180.94;5009866;28;20077;-51
2021/04/22 04:23:40;;;;;;;27.00;15.07;;;;;;;10.20;69.81;100178.47;5010533;28;20446;-50
2021/04/22 04:26:05;;;;;;;42.85;15.30;;;;;;;10.40;69.06;100180.53;5010637;28;20033;-48
2021/04/22 04:28:31;;;;;;;33.55;15.60;;;;;;;10.73;67.49;100178.94;5010728;28;20130;-48
2021/04/22 04:30:56;;;;;;;33.08;15.80;;;;;;;10.95;66.98;100181.56;5010519;28;20030;-49
2021/04/22 04:33:22;;;;;;;33.55;16.08;;;;;;;11.24;64.86;100183.16;5010448;28;20073;-50
2021/04/22 04:35:47;;;;;;;41.17;18.60;;;;;;;12.04;62.27;100185.31;5010235;28;20041;-49
2021/04/22 04:38:13;;;;;;;26.45;16.42;;;;;;;12.06;60.27;100180.59;5010296;28;20034;-47
2021/04/22 04:40:38;;;;;;;35.92;19.50;;;;;;;11.84;60.81;100178.06;5010231;28;20030;-47
2021/04/22 04:43:04;;;;;;;28.02;15.68;;;;;;;11.76;61.60;100172.91;5010364;28;20033;-51
2021/04/22 04:45:29;;;;;;;31.77;16.35;;;;;;;11.81;61.36;100177.66;5010618;28;20347;-53
2021/04/22 04:47:55;;;;;;;27.15;15.50;;;;;;;12.06;60.53;100177.94;5023631;28;20091;-49
2021/04/22 04:50:20;;;;;;;34.50;15.38;;;;;;;12.42;58.84;100180.22;5029243;28;20033;-51
2021/04/22 04:52:46;;;;;;;29.02;15.70;;;;;;;12.58;59.02;100181.66;5029631;28;20385;-52
2021/04/22 04:55:12;;;;;;;33.13;16.00;;;;;;;13.03;58.64;100187.16;5028131;28;20033;-53
2021/04/22 04:57:37;;;;;;;26.00;15.32;;;;;;;13.72;57.08;100189.44;5029850;28;20149;-52
2021/04/22 05:00:05;;;;;;;27.23;15.60;;;;;;;13.82;55.72;100185.28;5030049;28;20035;-50
2021/04/22 05:02:30;;;;;;;30.58;15.80;;;;;;;13.79;55.32;100180.34;5030057;28;20143;-51
2021/04/22 05:04:56;;;;;;;29.58;15.15;;;;;;;13.60;56.37;100187.44;5030089;28;20495;-53
2021/04/22 05:07:21;;;;;;;28.58;14.05;;;;;;;13.77;55.25;100193.09;5030027;28;20388;-50
2021/04/22 05:09:47;;;;;;;24.88;12.02;;;;;;;14.59;53.32;100195.09;5017509;28;20058;-49
2021/04/22 05:12:12;;;;;;;26.13;14.45;;;;;;;15.10;51.57;100199.34;5020585;28;20388;-52
2021/04/22 05:14:38;;;;;;;29.13;14.60;;;;;;;14.63;51.76;100193.59;5014545;28;20022;-52
2021/04/22 05:17:04;;;;;;;26.38;14.18;;;;;;;14.25;53.05;100179.22;5009340;28;20052;-51
2021/04/22 05:19:29;;;;;;;37.97;15.65;;;;;;;14.45;52.74;100191.66;5009599;28;20163;-50
2021/04/22 05:21:54;;;;;;;30.30;13.95;;;;;;;14.58;52.41;100172.00;5009824;28;20116;-50
2021/04/22 05:24:20;;;;;;;27.98;14.23;;;;;;;15.82;50.14;100191.50;5009711;28;20036;-52
2021/04/22 05:26:46;;;;;;;26.15;13.77;;;;;;;16.22;47.32;100193.63;5008576;28;20115;-52
2021/04/22 05:29:11;;;;;;;30.92;13.90;;;;;;;15.57;48.26;100172.81;5009351;28;20153;-52
2021/04/22 05:31:37;;;;;;;28.30;13.13;;;;;;;15.86;47.87;100188.34;5009692;28;20036;-52
2021/04/22 05:34:03;;;;;;;21.85;11.35;;;;;;;15.81;48.35;100191.72;5016412;28;20099;-53
2021/04/22 05:36:28;;;;;;;28.67;17.80;;;;;;;15.59;51.50;100192.19;5028426;28;20025;-52
2021/04/22 05:38:54;;;;;;;21.88;11.70;;;;;;;16.73;46.95;100198.59;5012684;28;20402;-52
2021/04/22 05:41:19;;;;;;;17.20;8.85;;;;;;;18.13;45.20;100199.41;5020158;28;20034;-51
2021/04/22 05:43:45;;;;;;;15.35;7.40;;;;;;;19.43;41.70;100190.31;5009749;28;20029;-53
2021/04/22 05:46:10;;;;;;;13.05;7.70;;;;;;;19.32;41.46;100210.13;5009488;28;20026;-50
2021/04/22 05:48:36;;;;;;;15.55;7.65;;;;;;;20.46;38.13;100202.19;5028271;28;20481;-52
2021/04/22 05:51:01;;;;;;;11.48;6.85;;;;;;;21.19;38.21;100204.31;5028994;28;20037;-50
2021/04/22 05:53:26;;;;;;;9.40;6.53;;;;;;;21.51;35.86;100200.72;5028808;28;20026;-51
2021/04/22 05:55:52;;;;;;;11.27;6.78;;;;;;;21.83;36.18;100203.25;5029578;28;20029;-53
2021/04/22 05:58:17;;;;;;;12.40;6.60;;;;;;;22.47;34.12;100206.66;5027822;28;20037;-51
2021/04/22 06:00:43;;;;;;;10.93;6.55;;;;;;;23.03;32.98;100218.25;5029160;28;20036;-50
2021/04/22 06:03:09;;;;;;;9.43;6.10;;;;;;;23.24;32.60;100215.50;5029157;28;20029;-51
2021/04/22 06:05:35;;;;;;;9.93;5.80;;;;;;;22.95;33.50;100212.56;5029099;28;20026;-52
2021/04/22 06:08:00;;;;;;;10.30;5.97;;;;;;;23.62;32.19;100211.25;5029002;28;20045;-49
2021/04/22 06:10:26;;;;;;;9.20;6.20;;;;;;;23.60;32.74;100224.31;5029329;28;20183;-52
2021/04/22 06:12:51;;;;;;;11.50;6.90;;;;;;;23.07;33.32;100215.00;5029306;28;20473;-51
2021/04/22 06:15:17;;;;;;;11.13;6.47;;;;;;;22.66;33.05;100215.84;5027949;28;20038;-52
2021/04/22 06:17:42;;;;;;;8.85;5.85;;;;;;;23.60;32.59;100218.88;5027890;28;20025;-51
2021/04/22 06:20:14;;;;;;;10.63;6.10;;;;;;;24.07;31.52;100214.03;5028984;28;20397;-51
2021/04/22 06:22:40;;;;;;;8.98;5.85;;;;;;;24.71;30.71;100214.09;5027762;28;20031;-49
2021/04/22 06:25:06;;;;;;;16.88;6.43;;;;;;;24.76;30.99;100214.06;5029021;28;20029;-51
2021/04/22 06:27:31;;;;;;;12.90;5.60;;;;;;;25.42;30.12;100223.47;5029142;28;20136;-50
2021/04/22 06:29:57;;;;;;;10.20;5.57;;;;;;;26.02;29.16;100220.22;5028934;28;20036;-52
2021/04/22 06:32:22;;;;;;;7.93;5.63;;;;;;;26.34;28.43;100222.19;5028536;28;20040;-51
2021/04/22 06:34:47;;;;;;;10.50;6.30;;;;;;;25.98;29.12;100232.03;5028915;28;20415;-52
2021/04/22 06:37:13;;;;;;;9.57;5.65;;;;;;;26.42;28.24;100223.44;5029867;28;20045;-51
2021/04/22 06:39:38;;;;;;;17.52;10.00;;;;;;;26.79;28.00;100227.22;5032404;28;20036;-51
2021/04/22 06:42:04;;;;;;;8.80;5.57;;;;;;;26.32;28.68;100221.69;5031780;28;20481;-52
2021/04/22 06:44:29;;;;;;;10.13;5.90;;;;;;;26.41;28.45;100223.75;5032073;28;20026;-51
2021/04/22 06:46:55;;;;;;;13.57;9.75;;;;;;;26.52;28.33;100225.19;5032321;28;20527;-53
2021/04/22 06:49:21;;;;;;;13.35;7.13;;;;;;;25.89;29.17;100219.03;5032257;28;20112;-49
2021/04/22 06:51:46;;;;;;;14.75;6.90;;;;;;;25.64;29.16;100217.44;5030807;28;20037;-51
2021/04/22 06:54:12;;;;;;;13.07;7.78;;;;;;;25.33;30.07;100215.13;5031825;28;20363;-52
2021/04/22 06:56:37;;;;;;;12.20;7.65;;;;;;;24.45;30.28;100210.78;5032556;28;20032;-52
2021/04/22 06:59:06;;;;;;;8.15;5.53;;;;;;;24.79;30.07;100191.72;5032697;28;20030;-52
2021/04/22 07:01:31;;;;;;;10.10;5.60;;;;;;;25.88;28.99;100219.34;5032550;28;20096;-51
2021/04/22 07:03:57;;;;;;;9.55;5.28;;;;;;;26.37;28.44;100209.06;5032494;28;20453;-52
2021/04/22 07:06:22;;;;;;;8.55;5.43;;;;;;;25.93;28.66;100224.72;5032255;28;20029;-51
2021/04/22 07:08:48;;;;;;;13.23;5.43;;;;;;;26.45;28.28;100211.94;5031657;28;20026;-51
2021/04/22 07:11:14;;;;;;;8.55;5.45;;;;;;;26.75;27.80;100207.09;5031719;28;20057;-50
2021/04/22 07:13:39;;;;;;;6.65;4.95;;;;;;;25.81;28.24;100208.78;5031812;28;20029;-50
2021/04/22 07:16:05;;;;;;;6.53;4.85;;;;;;;25.79;28.76;100204.75;5032095;28;20025;-51
2021/04/22 07:18:31;;;;;;;8.93;5.10;;;;;;;24.97;29.56;100201.06;5032024;28;20084;-51
2021/04/22 07:20:56;;;;;;;7.47;5.45;;;;;;;25.60;29.32;100196.53;5031562;28;20444;-51
2021/04/22 07:23:22;;;;;;;8.48;5.40;;;;;;;26.45;28.33;100186.56;5031982;28;20021;-51
2021/04/22 07:25:48;;;;;;;8.30;5.47;;;;;;;26.98;27.46;100191.66;5032838;28;20029;-52
2021/04/22 07:28:14;;;;;;;6.35;5.30;;;;;;;27.36;27.08;100188.75;5020878;28;20496;-52
2021/04/22 07:30:40;;;;;;;8.70;5.13;;;;;;;26.48;28.35;100192.25;5031763;28;20021;-50
2021/04/22 07:33:06;;;;;;;11.45;4.93;;;;;;;26.64;28.72;100189.28;5031923;28;20484;-51
2021/04/22 07:35:32;;;;;;;9.48;4.90;;;;;;;27.70;26.99;100195.66;5032479;28;20032;-51
2021/04/22 07:37:57;;;;;;;9.85;5.57;;;;;;;28.04;26.19;100188.91;5032019;28;20124;-52
2021/04/22 07:40:24;;;;;;;8.85;5.20;;;;;;;26.71;27.16;100189.69;5032043;28;20029;-49
2021/04/22 07:42:50;;;;;;;7.35;5.60;;;;;;;26.20;27.90;100193.25;5032175;28;20025;-49
2021/04/22 07:45:18;;;;;;;7.45;4.97;;;;;;;25.86;28.03;100192.38;5031748;28;20021;-49
2021/04/22 07:47:43;;;;;;;8.57;4.88;;;;;;;25.97;27.66;100193.06;5032049;28;20052;-52
2021/04/22 07:50:11;;;;;;;7.80;5.32;;;;;;;25.90;27.20;100190.66;5030784;28;20402;-49
2021/04/22 07:52:36;;;;;;;9.13;4.90;;;;;;;25.38;27.85;100186.19;5031636;28;20036;-49
2021/04/22 07:55:05;;;;;;;6.47;4.75;;;;;;;25.93;28.21;100189.28;5031552;28;20017;-52
2021/04/22 07:57:31;;;;;;;7.40;4.40;;;;;;;26.44;26.26;100193.94;5031695;28;20028;-51
2021/04/22 07:59:56;;;;;;;6.40;4.85;;;;;;;26.51;26.78;100199.81;5031683;28;20414;-51
2021/04/22 08:02:21;;;;;;;12.65;10.07;;;;;;;27.42;26.95;100197.66;5031430;28;20054;-50
2021/04/22 08:04:48;;;;;;;13.52;8.45;;;;;;;27.75;26.14;100201.03;5031497;28;20029;-51
2021/04/22 08:07:13;;;;;;;10.80;6.28;;;;;;;28.16;26.06;100191.91;5031633;28;20128;-52
2021/04/22 08:09:39;;;;;;;9.40;5.60;;;;;;;28.46;24.70;100189.53;5031365;28;20133;-51
2021/04/22 08:12:05;;;;;;;10.93;5.50;;;;;;;27.80;26.65;100192.72;5031385;28;20037;-50
2021/04/22 08:14:32;;;;;;;9.48;5.57;;;;;;;28.31;25.41;100192.66;5031160;28;20091;-51
2021/04/22 08:16:58;;;;;;;9.70;5.70;;;;;;;28.04;25.08;100197.13;5031298;28;20104;-51
2021/04/22 08:19:23;;;;;;;10.63;5.47;;;;;;;27.57;26.66;100193.75;5031130;28;20104;-49
2021/04/22 08:21:49;;;;;;;13.13;6.28;;;;;;;27.36;25.44;100193.38;5031400;28;20029;-49
2021/04/22 08:24:14;;;;;;;8.82;5.90;;;;;;;26.44;27.95;100188.47;5031045;28;20021;-51
2021/04/22 08:26:40;;;;;;;11.52;5.72;;;;;;;26.96;26.60;100193.06;5031018;28;20473;-50
2021/04/22 08:29:05;;;;;;;10.68;5.82;;;;;;;26.66;26.67;100181.59;5031014;28;20029;-52
2021/04/22 08:31:31;;;;;;;11.05;6.10;;;;;;;26.43;27.16;100186.88;5031200;28;20473;-50
2021/04/22 08:34:01;;;;;;;10.82;6.30;;;;;;;26.30;27.40;100193.91;5030836;28;20025;-52
2021/04/22 08:36:26;;;;;;;9.48;6.03;;;;;;;25.01;29.62;100183.03;5030739;28;20029;-50
2021/04/22 08:38:52;;;;;;;11.82;6.15;;;;;;;24.56;30.11;100187.84;5030996;28;20026;-48
2021/04/22 08:41:18;;;;;;;10.40;5.53;;;;;;;25.30;30.13;100182.19;5031033;28;20134;-49
2021/04/22 08:43:43;;;;;;;9.82;5.53;;;;;;;24.34;29.31;100186.38;5030793;28;20025;-50
2021/04/22 08:46:09;;;;;;;8.13;5.40;;;;;;;24.94;28.58;100186.13;5030680;28;20420;-51
2021/04/22 08:48:35;;;;;;;9.32;5.00;;;;;;;25.17;28.10;100184.50;5030710;28;20484;-50
2021/04/22 08:51:01;;;;;;;7.50;4.95;;;;;;;24.14;29.94;100186.53;5030501;28;20112;-51
2021/04/22 08:53:30;;;;;;;6.55;4.25;;;;;;;23.01;29.59;100176.19;5030290;28;20147;-51
2021/04/22 08:55:56;;;;;;;8.70;4.40;;;;;;;23.23;30.32;100162.31;5030339;28;20026;-51
2021/04/22 08:58:22;;;;;;;5.85;4.78;;;;;;;23.37;29.59;100173.38;5029967;28;20393;-48
2021/04/22 09:00:50;;;;;;;7.10;4.35;;;;;;;24.14;28.52;100162.06;5030250;28;20032;-50
2021/04/22 09:03:15;;;;;;;7.82;6.00;;;;;;;24.33;28.66;100156.75;5030245;28;20013;-51
2021/04/22 09:05:41;;;;;;;29.85;21.17;;;;;;;23.35;31.10;100159.25;5030233;28;20052;-48
2021/04/22 09:08:07;;;;;;;8.63;4.80;;;;;;;23.47;30.90;100153.50;5030286;28;20460;-48
2021/04/22 09:10:32;;;;;;;7.45;4.10;;;;;;;23.70;30.64;100149.28;5029155;28;20053;-53
2021/04/22 09:12:58;;;;;;;7.13;4.07;;;;;;;23.99;30.15;100135.84;5030054;28;20036;-51
2021/04/22 09:15:23;;;;;;;7.78;4.03;;;;;;;23.23;31.52;100141.38;5030089;28;20021;-50
2021/04/22 09:18:16;;;;;;;6.57;4.20;;;;;;;23.77;31.15;100131.59;5029034;28;20032;-52
2021/04/22 09:20:47;;;;;;;4.13;3.47;;;;;;;24.69;29.12;100131.97;5029880;28;20417;-50
2021/04/22 09:23:38;;;;;;;7.38;3.85;;;;;;;24.20;28.97;100123.69;5029235;28;20028;-48
2021/04/22 09:26:06;;;;;;;5.15;3.85;;;;;;;23.29;30.50;100120.47;5029458;28;20037;-51
2021/04/22 09:28:38;;;;;;;4.30;3.53;;;;;;;23.05;29.96;100120.28;5029577;28;20018;-50
2021/04/22 09:31:04;;;;;;;4.70;3.25;;;;;;;23.83;30.12;100121.53;5029813;28;20021;-51
2021/04/22 09:33:30;;;;;;;6.07;3.60;;;;;;;24.57;29.09;100116.84;5029441;28;20044;-51
2021/04/22 09:36:07;;;;;;;4.88;3.63;;;;;;;24.89;28.50;100125.50;5029662;28;20052;-51
2021/04/22 09:38:32;;;;;;;4.20;3.40;;;;;;;24.46;29.29;100115.28;5029801;28;20057;-50
2021/04/22 09:41:14;;;;;;;5.40;3.45;;;;;;;24.45;29.12;100121.03;5029625;28;20056;-51
2021/04/22 09:43:40;;;;;;;7.78;3.35;;;;;;;24.25;29.60;100109.22;5029412;28;20034;-52
2021/04/22 09:46:05;;;;;;;3.85;3.05;;;;;;;24.25;29.20;100108.41;5029945;28;20053;-50
2021/04/22 09:48:31;;;;;;;6.40;3.30;;;;;;;24.07;29.64;100099.88;5027741;28;20485;-49
2021/04/22 09:50:57;;;;;;;4.40;2.95;;;;;;;23.84;29.88;100100.59;5029217;28;20030;-51
2021/04/22 09:53:26;;;;;;;5.63;2.95;;;;;;;22.83;30.53;100104.34;5029025;28;20101;-49
2021/04/22 09:55:52;;;;;;;;;;;;;;;23.54;29.63;100094.25;5029597;28;20029;-51
2021/04/22 09:58:28;;;;;;;4.38;3.33;;;;;;;23.98;30.23;100088.00;5029450;28;20036;-50
2021/04/22 10:00:54;;;;;;;4.10;3.30;;;;;;;23.87;29.68;100086.44;5029554;28;20099;-51
2021/04/22 10:03:20;;;;;;;5.32;3.90;;;;;;;22.49;31.32;100094.09;5029283;28;20482;-52
2021/04/22 10:05:45;;;;;;;4.53;3.65;;;;;;;22.24;31.41;100090.31;5029427;28;20405;-49
2021/04/22 10:08:12;;;;;;;5.55;3.80;;;;;;;22.59;30.58;100074.28;5011313;28;20029;-52
2021/04/22 10:10:39;;;;;;;6.10;4.53;;;;;;;22.55;30.96;100076.72;5029304;28;20053;-52
2021/04/22 10:13:14;;;;;;;6.72;3.97;;;;;;;23.36;29.47;100080.25;5031132;28;20061;-52
2021/04/22 10:15:48;;;;;;;4.10;3.70;;;;;;;22.81;30.65;100069.34;5033022;28;20026;-50
2021/04/22 10:18:13;;;;;;;4.32;3.47;;;;;;;22.82;30.72;100062.00;5031852;28;20028;-49
2021/04/22 10:20:39;;;;;;;4.50;3.70;;;;;;;22.83;31.43;100069.88;5033152;28;20025;-51
2021/04/22 10:23:07;;;;;;;4.88;3.47;;;;;;;22.10;31.66;100061.31;5033191;28;20021;-51
2021/04/22 10:25:34;;;;;;;4.68;3.60;;;;;;;22.75;31.74;100045.19;5033365;28;20033;-50
2021/04/22 10:28:03;;;;;;;4.82;3.47;;;;;;;23.62;29.18;100045.56;5032985;28;20084;-52
2021/04/22 10:30:28;;;;;;;6.00;3.40;;;;;;;23.78;29.16;100046.31;5033134;28;20030;-50
2021/04/22 10:32:53;;;;;;;5.30;3.15;;;;;;;24.36;28.79;100048.22;5032875;28;20083;-50
2021/04/22 10:35:21;;;;;;;3.70;3.20;;;;;;;24.69;29.28;100050.34;5033205;28;20021;-52
2021/04/22 10:37:48;;;;;;;3.70;3.30;;;;;;;23.84;29.55;100059.81;5032964;28;20429;-52
2021/04/22 10:40:15;;;;;;;3.75;2.97;;;;;;;23.39;29.31;100040.84;5032922;28;20108;-52
2021/04/22 10:42:40;;;;;;;4.15;3.45;;;;;;;23.95;28.55;100045.91;5032978;28;20099;-50
2021/04/22 10:45:10;;;;;;;6.80;3.40;;;;;;;23.16;30.44;100040.44;5032993;28;20171;-51
2021/04/22 10:47:36;;;;;;;6.28;3.28;;;;;;;23.40;29.88;100035.13;5032884;28;20017;-52
2021/04/22 10:50:02;;;;;;;5.20;3.20;;;;;;;23.23;28.58;100043.66;5032851;28;20022;-49
2021/04/22 10:52:28;;;;;;;3.10;2.65;;;;;;;23.50;27.17;100039.69;5032687;28;20101;-50
2021/04/22 10:54:53;;;;;;;2.58;2.35;;;;;;;23.50;26.46;100030.75;5031094;28;20030;-52
2021/04/22 10:57:20;;;;;;;4.30;2.63;;;;;;;24.61;25.67;100024.56;5032815;28;20037;-52
2021/04/22 10:59:47;;;;;;;3.67;2.70;;;;;;;24.39;25.39;100027.81;5032532;28;20028;-50
2021/04/22 11:02:19;;;;;;;3.20;2.80;;;;;;;23.94;27.13;100019.00;5032884;28;20053;-52
2021/04/22 11:04:46;;;;;;;3.97;2.75;;;;;;;24.44;25.70;100027.72;5032890;28;20036;-51
2021/04/22 11:07:24;;;;;;;3.05;2.70;;;;;;;24.26;25.87;100020.34;5032421;28;20104;-52
2021/04/22 11:09:51;;;;;;;4.40;2.80;;;;;;;24.38;26.35;100013.38;5032981;28;20055;-50
2021/04/22 11:12:24;;;;;;;3.72;3.00;;;;;;;23.54;27.69;100005.44;5032303;28;20406;-52
2021/04/22 11:14:51;;;;;;;3.55;2.83;;;;;;;24.48;26.29;100004.28;5032826;28;20029;-49